Edenbridge, United Kingdom
Current Conditions -  °F | °C
As of 9:20 AM on Friday 19 Dec 2014 (Local Time) from EGKB Reporting Station
Scattered Clouds Scattered Clouds  
Wind Chill:   Ceiling: Unl
Heat Index:   Visibility: 6mi
Dew Point:   Wind: 15mph
Humidity: 82%   Direction: 290°WNW
Pressure: 29.91"   Gusts: NA
Location:  51.19°N, 0.07°E
Report Text: EGKB 190920Z 29013KT 260V340 9999 FEW015 SCT025 09/06 Q1013
Loading
Personal Weather Stations






























Interactive Weather Map New forecast layout! Learn more

10-Day Weather Forecast

Advertisements
Track Severe Weather on mobile